Time;durP1;ratioP1;P1;durP2;ratioP2;P2;SDS_P1;SDS_P2;PMS_P1;PMS_P2;Temp;Humidity;BMP_temperature;BMP_pressure;BME280_temperature;BME280_humidity;BME280_pressure;Samples;Min_cycle;Max_cycle;Signal;HPM_P1;HPM_P2
2022/09/21 00:00:45;;;;;;;;;;;;;;;;;;5048922;28;46754;-78
2022/09/21 00:03:12;;;;;;;;;;;;;;;;;;5048559;28;41496;-78
2022/09/21 00:05:38;;;;;;;;;;;;;;;;;;5066300;28;45407;-78
2022/09/21 00:08:04;;;;;;;;;;;;;;;;;;5046031;28;45023;-78
2022/09/21 00:10:30;;;;;;;;;;;;;;;;;;5055191;28;45580;-78
2022/09/21 00:12:57;;;;;;;;;;;;;;;;;;5048386;28;45844;-78
2022/09/21 00:15:26;;;;;;;;;;;;;;;;;;5049518;28;43899;-78
2022/09/21 00:17:52;;;;;;;;;;;;;;;;;;5046999;28;46406;-78
2022/09/21 00:20:19;;;;;;;;;;;;;;;;;;5048790;28;48097;-78
2022/09/21 00:22:45;;;;;;;;;;;;;;;;;;5065948;28;44866;-78
2022/09/21 00:25:11;;;;;;;;;;;;;;;;;;5052784;28;47865;-78
2022/09/21 00:27:37;;;;;;;;;;;;;;;;;;5047683;28;43461;-78
2022/09/21 00:30:05;;;;;;;;;;;;;;;;;;5043202;28;46409;-78
2022/09/21 00:32:31;;;;;;;;;;;;;;;;;;5048226;28;48032;-78
2022/09/21 00:34:59;;;;;;;;;;;;;;;;;;5063701;28;43731;-78
2022/09/21 00:37:25;;;;;;;;;;;;;;;;;;5066903;28;44317;-78
2022/09/21 00:39:51;;;;;;;;;;;;;;;;;;5066828;28;47119;-78
2022/09/21 00:42:17;;;;;;;;;;;;;;;;;;5046148;28;41691;-78
2022/09/21 00:44:44;;;;;;;;;;;;;;;;;;5048051;28;45992;-78
2022/09/21 00:47:10;;;;;;;;;;;;;;;;;;5066276;28;47889;-78
2022/09/21 00:49:37;;;;;;;;;;;;;;;;;;5067027;28;46558;-78
2022/09/21 00:52:04;;;;;;;;;;;;;;;;;;5049085;28;48509;-78
2022/09/21 00:54:31;;;;;;;;;;;;;;;;;;5041478;28;43715;-78
2022/09/21 00:57:01;;;;;;;;;;;;;;;;;;5066678;28;47713;-78
2022/09/21 00:59:32;;;;;;;;;;;;;;;;;;5045208;28;45926;-78
2022/09/21 01:02:01;;;;;;;;;;;;;;;;;;5047561;28;45891;-78
2022/09/21 01:04:27;;;;;;;;;;;;;;;;;;5051380;28;47342;-78
2022/09/21 01:06:54;;;;;;;;;;;;;;;;;;5064998;28;45716;-77
2022/09/21 01:09:20;;;;;;;;;;;;;;;;;;5049596;28;42023;-78
2022/09/21 01:11:46;;;;;;;;;;;;;;;;;;5045504;28;48254;-78
2022/09/21 01:14:12;;;;;;;;;;;;;;;;;;5046663;28;43822;-78
2022/09/21 01:16:39;;;;;;;;;;;;;;;;;;5047279;28;46058;-78
2022/09/21 01:19:05;;;;;;;;;;;;;;;;;;5065528;28;45099;-77
2022/09/21 01:21:34;;;;;;;;;;;;;;;;;;5043880;28;44498;-78
2022/09/21 01:24:01;;;;;;;;;;;;;;;;;;5047664;28;44546;-78
2022/09/21 01:26:28;;;;;;;;;;;;;;;;;;5066611;28;45698;-78
2022/09/21 01:28:54;;;;;;;;;;;;;;;;;;5050805;28;42010;-78
2022/09/21 01:31:20;;;;;;;;;;;;;;;;;;5049708;28;45674;-77
2022/09/21 01:33:46;;;;;;;;;;;;;;;;;;5050614;28;41723;-78
2022/09/21 01:36:13;;;;;;;;;;;;;;;;;;5051832;28;46433;-78
2022/09/21 01:38:39;;;;;;;;;;;;;;;;;;5069672;28;47446;-78
2022/09/21 01:41:06;;;;;;;;;;;;;;;;;;5051372;28;45301;-78
2022/09/21 01:43:32;;;;;;;;;;;;;;;;;;5063138;28;44011;-78
2022/09/21 01:46:00;;;;;;;;;;;;;;;;;;5031724;28;48211;-78
2022/09/21 01:48:27;;;;;;;;;;;;;;;;;;5036460;28;42538;-78
2022/09/21 01:50:53;;;;;;;;;;;;;;;;;;5036288;28;45958;-78
2022/09/21 01:53:19;;;;;;;;;;;;;;;;;;5048658;28;43521;-77
2022/09/21 01:55:48;;;;;;;;;;;;;;;;;;5047741;28;47629;-78
2022/09/21 01:58:16;;;;;;;;;;;;;;;;;;5050077;28;47048;-77
2022/09/21 02:00:42;;;;;;;;;;;;;;;;;;5051744;28;44010;-78
2022/09/21 02:03:09;;;;;;;;;;;;;;;;;;5051599;28;45296;-77
2022/09/21 02:05:35;;;;;;;;;;;;;;;;;;5049894;28;48298;-78
2022/09/21 02:08:01;;;;;;;;;;;;;;;;;;5069880;28;41325;-78
2022/09/21 02:10:28;;;;;;;;;;;;;;;;;;5049592;28;46346;-78
2022/09/21 02:12:57;;;;;;;;;;;;;;;;;;5068621;28;46165;-78
2022/09/21 02:15:24;;;;;;;;;;;;;;;;;;5051030;28;47058;-78
2022/09/21 02:17:50;;;;;;;;;;;;;;;;;;5066854;28;47295;-77
2022/09/21 02:20:18;;;;;;;;;;;;;;;;;;5051440;28;44912;-77
2022/09/21 02:22:44;;;;;;;;;;;;;;;;;;5065885;28;45679;-78
2022/09/21 02:25:10;;;;;;;;;;;;;;;;;;5050848;28;47311;-78
2022/09/21 02:27:36;;;;;;;;;;;;;;;;;;5050950;28;44042;-78
2022/09/21 02:30:03;;;;;;;;;;;;;;;;;;5049022;28;45085;-78
2022/09/21 02:32:34;;;;;;;;;;;;;;;;;;5049214;28;47286;-78
2022/09/21 02:35:02;;;;;;;;;;;;;;;;;;5051803;28;45108;-78
2022/09/21 02:37:30;;;;;;;;;;;;;;;;;;5047206;28;46175;-78
2022/09/21 02:39:56;;;;;;;;;;;;;;;;;;5045909;28;44134;-78
2022/09/21 02:42:23;;;;;;;;;;;;;;;;;;5049390;28;46809;-78
2022/09/21 02:44:50;;;;;;;;;;;;;;;;;;5050551;28;47189;-78
2022/09/21 02:47:17;;;;;;;;;;;;;;;;;;5044760;28;43641;-77
2022/09/21 02:49:43;;;;;;;;;;;;;;;;;;5068788;28;45685;-78
2022/09/21 02:52:09;;;;;;;;;;;;;;;;;;5049885;28;46850;-77
2022/09/21 02:54:35;;;;;;;;;;;;;;;;;;5047622;28;43014;-78
2022/09/21 02:57:02;;;;;;;;;;;;;;;;;;5047511;28;46375;-78
2022/09/21 02:59:28;;;;;;;;;;;;;;;;;;5068025;28;44380;-78
2022/09/21 03:01:57;;;;;;;;;;;;;;;;;;5049002;28;45647;-78
2022/09/21 03:04:23;;;;;;;;;;;;;;;;;;5049294;28;47381;-78
2022/09/21 03:06:50;;;;;;;;;;;;;;;;;;5049422;28;45223;-78
2022/09/21 03:09:17;;;;;;;;;;;;;;;;;;5067095;28;45533;-78
2022/09/21 03:11:43;;;;;;;;;;;;;;;;;;5048783;28;48297;-78
2022/09/21 03:14:09;;;;;;;;;;;;;;;;;;5043149;28;42790;-77
2022/09/21 03:16:36;;;;;;;;;;;;;;;;;;5047063;28;46675;-77
2022/09/21 03:19:02;;;;;;;;;;;;;;;;;;5060027;28;34428;-77
2022/09/21 03:21:28;;;;;;;;;;;;;;;;;;5050267;28;46734;-78
2022/09/21 03:23:54;;;;;;;;;;;;;;;;;;5047745;28;46871;-78
2022/09/21 03:26:21;;;;;;;;;;;;;;;;;;5065810;28;44087;-78
2022/09/21 03:28:47;;;;;;;;;;;;;;;;;;5067197;28;46640;-77
2022/09/21 03:31:13;;;;;;;;;;;;;;;;;;5046802;28;46963;-78
2022/09/21 03:33:40;;;;;;;;;;;;;;;;;;5060253;28;43117;-78
2022/09/21 03:36:06;;;;;;;;;;;;;;;;;;5066614;28;46499;-77
2022/09/21 03:38:33;;;;;;;;;;;;;;;;;;5050012;28;47191;-77
2022/09/21 03:40:59;;;;;;;;;;;;;;;;;;5049715;28;46614;-77
2022/09/21 03:43:26;;;;;;;;;;;;;;;;;;5050074;28;45726;-77
2022/09/21 03:45:52;;;;;;;;;;;;;;;;;;5049462;28;43875;-77
2022/09/21 03:48:18;;;;;;;;;;;;;;;;;;5047905;28;46030;-78
2022/09/21 03:50:44;;;;;;;;;;;;;;;;;;5047888;28;47437;-77
2022/09/21 03:53:10;;;;;;;;;;;;;;;;;;5067621;28;43814;-78
2022/09/21 03:55:37;;;;;;;;;;;;;;;;;;5047541;28;46621;-77
2022/09/21 03:58:03;;;;;;;;;;;;;;;;;;5049334;28;47188;-77
2022/09/21 04:00:29;;;;;;;;;;;;;;;;;;5066501;28;43650;-78
2022/09/21 04:02:55;;;;;;;;;;;;;;;;;;5042489;28;47098;-78
2022/09/21 04:05:22;;;;;;;;;;;;;;;;;;5028924;28;44950;-78
2022/09/21 04:07:48;;;;;;;;;;;;;;;;;;5047690;28;44815;-78
2022/09/21 04:10:14;;;;;;;;;;;;;;;;;;5046261;28;45524;-77
2022/09/21 04:12:42;;;;;;;;;;;;;;;;;;5050754;28;42879;-78
2022/09/21 04:15:08;;;;;;;;;;;;;;;;;;5051103;28;45945;-79
2022/09/21 04:17:34;;;;;;;;;;;;;;;;;;5067581;28;48364;-77
2022/09/21 04:20:00;;;;;;;;;;;;;;;;;;5065065;28;44002;-78
2022/09/21 04:22:30;;;;;;;;;;;;;;;;;;5049868;28;46302;-77
2022/09/21 04:24:57;;;;;;;;;;;;;;;;;;5064824;28;43727;-78
2022/09/21 04:27:24;;;;;;;;;;;;;;;;;;5067535;28;44919;-78
2022/09/21 04:29:50;;;;;;;;;;;;;;;;;;5065233;28;47212;-78
2022/09/21 04:32:16;;;;;;;;;;;;;;;;;;5046013;28;43631;-78
2022/09/21 04:34:42;;;;;;;;;;;;;;;;;;5065829;28;45554;-78
2022/09/21 04:37:09;;;;;;;;;;;;;;;;;;5047171;28;47299;-77
2022/09/21 04:39:35;;;;;;;;;;;;;;;;;;5047936;28;44052;-78
2022/09/21 04:42:01;;;;;;;;;;;;;;;;;;5066423;28;46696;-77
2022/09/21 04:44:29;;;;;;;;;;;;;;;;;;5065646;28;47214;-77
2022/09/21 04:46:55;;;;;;;;;;;;;;;;;;5049476;28;46731;-78
2022/09/21 04:49:21;;;;;;;;;;;;;;;;;;5064390;28;47559;-78
2022/09/21 04:51:48;;;;;;;;;;;;;;;;;;5039300;28;42868;-76
2022/09/21 04:54:14;;;;;;;;;;;;;;;;;;5043165;28;46653;-76
2022/09/21 04:56:40;;;;;;;;;;;;;;;;;;5046769;28;46235;-76
2022/09/21 04:59:06;;;;;;;;;;;;;;;;;;5066282;28;44388;-76
2022/09/21 05:01:33;;;;;;;;;;;;;;;;;;5048283;28;47835;-77
2022/09/21 05:04:01;;;;;;;;;;;;;;;;;;5065502;28;48449;-78
2022/09/21 05:06:27;;;;;;;;;;;;;;;;;;5053980;28;45031;-78
2022/09/21 05:11:38;;;;;;;;;;;;;;;;;;5070608;28;43669;-79
2022/09/21 05:14:04;;;;;;;;;;;;;;;;;;5052519;28;45585;-78
2022/09/21 05:16:31;;;;;;;;;;;;;;;;;;5046201;28;48307;-78
2022/09/21 05:18:57;;;;;;;;;;;;;;;;;;5068040;28;43777;-78
2022/09/21 05:21:23;;;;;;;;;;;;;;;;;;5043115;28;46369;-79
2022/09/21 05:23:49;;;;;;;;;;;;;;;;;;5053709;28;47175;-78
2022/09/21 05:26:16;;;;;;;;;;;;;;;;;;5074520;28;43391;-78
2022/09/21 05:28:42;;;;;;;;;;;;;;;;;;5072145;28;47272;-78
2022/09/21 05:31:08;;;;;;;;;;;;;;;;;;5068704;28;46399;-78
2022/09/21 05:33:42;;;;;;;;;;;;;;;;;;5056765;28;45202;-78
2022/09/21 05:36:09;;;;;;;;;;;;;;;;;;5054442;28;45758;-78
2022/09/21 05:38:35;;;;;;;;;;;;;;;;;;5055876;28;43319;-78
2022/09/21 05:41:02;;;;;;;;;;;;;;;;;;5073606;28;46643;-78
2022/09/21 05:43:28;;;;;;;;;;;;;;;;;;5054249;28;47115;-78
2022/09/21 05:45:54;;;;;;;;;;;;;;;;;;5074133;28;44457;-78
2022/09/21 05:48:21;;;;;;;;;;;;;;;;;;5053213;28;45721;-78
2022/09/21 05:50:47;;;;;;;;;;;;;;;;;;5056452;28;45446;-78
2022/09/21 05:53:13;;;;;;;;;;;;;;;;;;5072885;28;46583;-78
2022/09/21 05:55:39;;;;;;;;;;;;;;;;;;5050504;28;47227;-78
2022/09/21 05:58:05;;;;;;;;;;;;;;;;;;5056075;28;43479;-78
2022/09/21 06:00:31;;;;;;;;;;;;;;;;;;5055931;28;46721;-78
2022/09/21 06:02:58;;;;;;;;;;;;;;;;;;5054284;28;48277;-78
2022/09/21 06:05:24;;;;;;;;;;;;;;;;;;5054480;28;44016;-78
2022/09/21 06:07:50;;;;;;;;;;;;;;;;;;5092499;28;46856;-78
2022/09/21 06:10:16;;;;;;;;;;;;;;;;;;5063633;28;46349;-79
2022/09/21 06:12:43;;;;;;;;;;;;;;;;;;5047218;28;46735;-80
2022/09/21 06:15:09;;;;;;;;;;;;;;;;;;5081213;28;46094;-79
2022/09/21 06:17:35;;;;;;;;;;;;;;;;;;5083229;28;42964;-79
2022/09/21 06:20:02;;;;;;;;;;;;;;;;;;5074234;28;46473;-79
2022/09/21 06:22:28;;;;;;;;;;;;;;;;;;5057343;28;47255;-79
2022/09/21 06:24:54;;;;;;;;;;;;;;;;;;5061401;28;43579;-80
2022/09/21 06:27:22;;;;;;;;;;;;;;;;;;5049979;28;47713;-82
2022/09/21 06:29:48;;;;;;;;;;;;;;;;;;5054308;28;46151;-82
2022/09/21 06:32:14;;;;;;;;;;;;;;;;;;5068072;28;43584;-82
2022/09/21 06:34:41;;;;;;;;;;;;;;;;;;5062336;28;48353;-82
2022/09/21 06:37:08;;;;;;;;;;;;;;;;;;5071022;28;41446;-78
2022/09/21 06:39:34;;;;;;;;;;;;;;;;;;5058385;28;47821;-81
2022/09/21 06:42:00;;;;;;;;;;;;;;;;;;5053129;28;45462;-80
2022/09/21 06:44:28;;;;;;;;;;;;;;;;;;5066932;28;45000;-78
2022/09/21 06:46:54;;;;;;;;;;;;;;;;;;5049813;28;47786;-79
2022/09/21 06:49:21;;;;;;;;;;;;;;;;;;5052219;28;47334;-79
2022/09/21 06:51:47;;;;;;;;;;;;;;;;;;5052757;28;40974;-78
2022/09/21 06:54:13;;;;;;;;;;;;;;;;;;5051377;28;44571;-80
2022/09/21 06:56:42;;;;;;;;;;;;;;;;;;5052086;28;45112;-79
2022/09/21 06:59:08;;;;;;;;;;;;;;;;;;5073113;28;46663;-79
2022/09/21 07:01:34;;;;;;;;;;;;;;;;;;5052085;28;48403;-80
2022/09/21 07:04:00;;;;;;;;;;;;;;;;;;5053881;28;43993;-79
2022/09/21 07:06:28;;;;;;;;;;;;;;;;;;5044561;28;44609;-80
2022/09/21 07:08:55;;;;;;;;;;;;;;;;;;5067799;28;45646;-79
2022/09/21 07:11:41;;;;;;;;;;;;;;;;;;5074049;28;19979;-79
2022/09/21 07:14:07;;;;;;;;;;;;;;;;;;5055170;28;47742;-79
2022/09/21 07:16:33;;;;;;;;;;;;;;;;;;5056710;28;46085;-79
2022/09/21 07:19:00;;;;;;;;;;;;;;;;;;5071334;28;45731;-81
2022/09/21 07:21:36;;;;;;;;;;;;;;;;;;5055146;28;46032;-80
2022/09/21 07:24:02;;;;;;;;;;;;;;;;;;5054094;28;44069;-81
2022/09/21 07:26:32;;;;;;;;;;;;;;;;;;5054808;28;46160;-80
2022/09/21 07:28:58;;;;;;;;;;;;;;;;;;5053849;28;46037;-78
2022/09/21 07:31:24;;;;;;;;;;;;;;;;;;5048746;28;44763;-78
2022/09/21 07:33:51;;;;;;;;;;;;;;;;;;5045804;28;45986;-79
2022/09/21 07:36:17;;;;;;;;;;;;;;;;;;5063687;28;46893;-78
2022/09/21 07:38:46;;;;;;;;;;;;;;;;;;5049901;28;47791;-78
2022/09/21 07:41:14;;;;;;;;;;;;;;;;;;5051662;28;48368;-80
2022/09/21 07:43:44;;;;;;;;;;;;;;;;;;5049840;28;42059;-77
2022/09/21 07:46:10;;;;;;;;;;;;;;;;;;5053867;28;45518;-79
2022/09/21 07:48:36;;;;;;;;;;;;;;;;;;5057556;28;47820;-77
2022/09/21 07:51:05;;;;;;;;;;;;;;;;;;5050130;28;45017;-78
2022/09/21 07:53:34;;;;;;;;;;;;;;;;;;5046282;28;46639;-76
2022/09/21 07:56:01;;;;;;;;;;;;;;;;;;5047856;28;47312;-76
2022/09/21 08:01:12;;;;;;;;;;;;;;;;;;5058379;28;47269;-76
2022/09/21 08:03:39;;;;;;;;;;;;;;;;;;5057116;28;44955;-75
2022/09/21 08:06:05;;;;;;;;;;;;;;;;;;5066228;28;46789;-75
2022/09/21 08:08:32;;;;;;;;;;;;;;;;;;5067050;28;45957;-77
2022/09/21 08:10:59;;;;;;;;;;;;;;;;;;5060105;28;44158;-75
2022/09/21 08:13:25;;;;;;;;;;;;;;;;;;5063073;28;46723;-78
2022/09/21 08:15:51;;;;;;;;;;;;;;;;;;5044354;28;48203;-75
2022/09/21 08:18:17;;;;;;;;;;;;;;;;;;5063457;28;43162;-79
2022/09/21 08:20:44;;;;;;;;;;;;;;;;;;5063322;28;47567;-77
2022/09/21 08:23:11;;;;;;;;;;;;;;;;;;5062246;28;43466;-76
2022/09/21 08:25:38;;;;;;;;;;;;;;;;;;5041375;28;48742;-78
2022/09/21 08:28:04;;;;;;;;;;;;;;;;;;5061366;28;48368;-77
2022/09/21 08:30:34;;;;;;;;;;;;;;;;;;5062582;28;45021;-77
2022/09/21 08:33:01;;;;;;;;;;;;;;;;;;5066236;28;44676;-77
2022/09/21 08:35:27;;;;;;;;;;;;;;;;;;5044292;28;46203;-77
2022/09/21 08:37:53;;;;;;;;;;;;;;;;;;5060616;28;42355;-79
2022/09/21 08:40:20;;;;;;;;;;;;;;;;;;5033844;28;46697;-82
2022/09/21 08:42:46;;;;;;;;;;;;;;;;;;5060308;28;48111;-78
2022/09/21 08:45:16;;;;;;;;;;;;;;;;;;5056769;28;44581;-78
2022/09/21 08:47:42;;;;;;;;;;;;;;;;;;5064112;28;45612;-78
2022/09/21 08:50:09;;;;;;;;;;;;;;;;;;5045417;28;45100;-78
2022/09/21 08:52:35;;;;;;;;;;;;;;;;;;5045491;28;45189;-78
2022/09/21 08:55:01;;;;;;;;;;;;;;;;;;5042636;28;45370;-78
2022/09/21 08:57:27;;;;;;;;;;;;;;;;;;5047522;28;45102;-78
2022/09/21 08:59:54;;;;;;;;;;;;;;;;;;5036121;28;47729;-77
2022/09/21 09:02:20;;;;;;;;;;;;;;;;;;5065631;28;46930;-77
2022/09/21 09:04:47;;;;;;;;;;;;;;;;;;5043963;28;44928;-77
2022/09/21 09:07:14;;;;;;;;;;;;;;;;;;5044691;28;46259;-78
2022/09/21 09:09:40;;;;;;;;;;;;;;;;;;5066552;28;44063;-79
2022/09/21 09:12:06;;;;;;;;;;;;;;;;;;5061198;28;47750;-78
2022/09/21 09:14:36;;;;;;;;;;;;;;;;;;5047196;28;47269;-77
2022/09/21 09:17:02;;;;;;;;;;;;;;;;;;5066439;28;43191;-79
2022/09/21 09:19:28;;;;;;;;;;;;;;;;;;5061194;28;46033;-79
2022/09/21 09:21:55;;;;;;;;;;;;;;;;;;5059375;28;47776;-78
2022/09/21 09:24:21;;;;;;;;;;;;;;;;;;5064625;28;41704;-77
2022/09/21 09:26:47;;;;;;;;;;;;;;;;;;5062401;28;47808;-78
2022/09/21 09:29:13;;;;;;;;;;;;;;;;;;5042995;28;44938;-78
2022/09/21 09:31:39;;;;;;;;;;;;;;;;;;5051097;28;46750;-78
2022/09/21 09:34:06;;;;;;;;;;;;;;;;;;5047128;28;45760;-77
2022/09/21 09:36:32;;;;;;;;;;;;;;;;;;5064606;28;45997;-77
2022/09/21 09:39:18;;;;;;;;;;;;;;;;;;5066458;28;19979;-78
2022/09/21 09:41:44;;;;;;;;;;;;;;;;;;5064785;28;45217;-78
2022/09/21 09:44:10;;;;;;;;;;;;;;;;;;5037531;28;42881;-77
2022/09/21 09:46:37;;;;;;;;;;;;;;;;;;5043226;28;45651;-78
2022/09/21 09:49:03;;;;;;;;;;;;;;;;;;5059988;28;44817;-77
2022/09/21 09:51:29;;;;;;;;;;;;;;;;;;5061890;28;47081;-78
2022/09/21 09:53:56;;;;;;;;;;;;;;;;;;5041974;28;48465;-78
2022/09/21 09:56:22;;;;;;;;;;;;;;;;;;5041303;28;45138;-78
2022/09/21 09:58:48;;;;;;;;;;;;;;;;;;5072582;28;46922;-77
2022/09/21 10:01:15;;;;;;;;;;;;;;;;;;5059730;28;46930;-76
2022/09/21 10:03:41;;;;;;;;;;;;;;;;;;5059957;28;42116;-78
2022/09/21 10:06:07;;;;;;;;;;;;;;;;;;5062851;28;45505;-78
2022/09/21 10:08:33;;;;;;;;;;;;;;;;;;5058723;28;48371;-79
2022/09/21 10:11:00;;;;;;;;;;;;;;;;;;5059144;28;46147;-78
2022/09/21 10:13:26;;;;;;;;;;;;;;;;;;5061934;28;47312;-78
2022/09/21 10:15:52;;;;;;;;;;;;;;;;;;5039312;28;45024;-78
2022/09/21 10:18:18;;;;;;;;;;;;;;;;;;5062831;28;47672;-77
2022/09/21 10:20:44;;;;;;;;;;;;;;;;;;5043524;28;47655;-78
2022/09/21 10:23:11;;;;;;;;;;;;;;;;;;5065121;28;43936;-77
2022/09/21 10:25:37;;;;;;;;;;;;;;;;;;5062557;28;46668;-77
2022/09/21 10:28:05;;;;;;;;;;;;;;;;;;5063063;28;47125;-78
2022/09/21 10:30:31;;;;;;;;;;;;;;;;;;5047291;28;45569;-78
2022/09/21 10:32:58;;;;;;;;;;;;;;;;;;5045086;28;48416;-78
2022/09/21 10:35:24;;;;;;;;;;;;;;;;;;5062533;28;44028;-77
2022/09/21 10:37:53;;;;;;;;;;;;;;;;;;5052928;28;46453;-77
2022/09/21 10:40:19;;;;;;;;;;;;;;;;;;5063198;28;46738;-77
2022/09/21 10:42:45;;;;;;;;;;;;;;;;;;5051275;28;43919;-77
2022/09/21 10:45:12;;;;;;;;;;;;;;;;;;5060194;28;46593;-77
2022/09/21 10:47:38;;;;;;;;;;;;;;;;;;5064371;28;47312;-77
2022/09/21 10:50:04;;;;;;;;;;;;;;;;;;5065240;28;44921;-77
2022/09/21 10:52:30;;;;;;;;;;;;;;;;;;5066066;28;45564;-77
2022/09/21 10:54:56;;;;;;;;;;;;;;;;;;5052512;28;44336;-77
2022/09/21 10:57:23;;;;;;;;;;;;;;;;;;5065327;28;47827;-77
2022/09/21 10:59:49;;;;;;;;;;;;;;;;;;5065521;28;47313;-77
2022/09/21 11:02:15;;;;;;;;;;;;;;;;;;5045165;28;44130;-76
2022/09/21 11:04:41;;;;;;;;;;;;;;;;;;5066297;28;46003;-76
2022/09/21 11:07:08;;;;;;;;;;;;;;;;;;5062938;28;48237;-77
2022/09/21 11:09:34;;;;;;;;;;;;;;;;;;5059082;28;42965;-77
2022/09/21 11:12:02;;;;;;;;;;;;;;;;;;5037823;28;35468;-77
2022/09/21 11:14:29;;;;;;;;;;;;;;;;;;5044821;28;48393;-76
2022/09/21 11:16:55;;;;;;;;;;;;;;;;;;5059178;28;46688;-79
2022/09/21 11:19:21;;;;;;;;;;;;;;;;;;5051872;28;46100;-77
2022/09/21 11:21:47;;;;;;;;;;;;;;;;;;5071225;28;42634;-77
2022/09/21 11:24:13;;;;;;;;;;;;;;;;;;5048415;28;47833;-79
2022/09/21 11:26:40;;;;;;;;;;;;;;;;;;5056652;28;48335;-79
2022/09/21 11:29:07;;;;;;;;;;;;;;;;;;5056800;28;19929;-77
2022/09/21 11:31:33;;;;;;;;;;;;;;;;;;5065981;28;47050;-77
2022/09/21 11:34:00;;;;;;;;;;;;;;;;;;5060184;28;47209;-78
2022/09/21 11:36:26;;;;;;;;;;;;;;;;;;5063154;28;44998;-77
2022/09/21 11:38:52;;;;;;;;;;;;;;;;;;5059316;28;46957;-78
2022/09/21 11:41:18;;;;;;;;;;;;;;;;;;5040164;28;45191;-81
2022/09/21 11:43:45;;;;;;;;;;;;;;;;;;5060988;28;45842;-79
2022/09/21 11:46:11;;;;;;;;;;;;;;;;;;5047093;28;45801;-79
2022/09/21 11:48:37;;;;;;;;;;;;;;;;;;5043183;28;43711;-79
2022/09/21 11:51:03;;;;;;;;;;;;;;;;;;5061306;28;45662;-78
2022/09/21 11:53:30;;;;;;;;;;;;;;;;;;5041643;28;49293;-79
2022/09/21 11:55:56;;;;;;;;;;;;;;;;;;5046343;28;44036;-78
2022/09/21 11:58:22;;;;;;;;;;;;;;;;;;5048619;28;48350;-78
2022/09/21 12:00:50;;;;;;;;;;;;;;;;;;5052551;28;45343;-78
2022/09/21 12:03:17;;;;;;;;;;;;;;;;;;5060442;28;47572;-78
2022/09/21 12:05:43;;;;;;;;;;;;;;;;;;5042289;28;48319;-78
2022/09/21 12:08:13;;;;;;;;;;;;;;;;;;5063940;28;45179;-79
2022/09/21 12:10:40;;;;;;;;;;;;;;;;;;5044399;28;45674;-79
2022/09/21 12:13:06;;;;;;;;;;;;;;;;;;5059948;28;48359;-79
2022/09/21 12:15:32;;;;;;;;;;;;;;;;;;5041506;28;45015;-79
2022/09/21 12:17:58;;;;;;;;;;;;;;;;;;5059496;28;46739;-80
2022/09/21 12:20:24;;;;;;;;;;;;;;;;;;5031320;28;45088;-79
2022/09/21 12:22:51;;;;;;;;;;;;;;;;;;5044122;28;46470;-79
2022/09/21 12:25:17;;;;;;;;;;;;;;;;;;5064691;28;47945;-79
2022/09/21 12:27:43;;;;;;;;;;;;;;;;;;5061016;28;44450;-78
2022/09/21 12:30:09;;;;;;;;;;;;;;;;;;5041525;28;45176;-79
2022/09/21 12:32:35;;;;;;;;;;;;;;;;;;5064930;28;47976;-79
2022/09/21 12:35:02;;;;;;;;;;;;;;;;;;5063398;28;43965;-79
2022/09/21 12:37:30;;;;;;;;;;;;;;;;;;5050476;28;46707;-79
2022/09/21 12:39:56;;;;;;;;;;;;;;;;;;5064448;28;47297;-79
2022/09/21 12:42:22;;;;;;;;;;;;;;;;;;5062942;28;47823;-79
2022/09/21 12:44:51;;;;;;;;;;;;;;;;;;5064518;28;46742;-79
2022/09/21 12:47:17;;;;;;;;;;;;;;;;;;5064975;28;44250;-79
2022/09/21 12:49:43;;;;;;;;;;;;;;;;;;5058178;28;48108;-79
2022/09/21 12:52:10;;;;;;;;;;;;;;;;;;5062683;28;48411;-79
2022/09/21 12:54:36;;;;;;;;;;;;;;;;;;5062854;28;45143;-79
2022/09/21 12:57:03;;;;;;;;;;;;;;;;;;5059677;28;47857;-79
2022/09/21 12:59:48;;;;;;;;;;;;;;;;;;5063517;28;47541;-79
2022/09/21 13:02:15;;;;;;;;;;;;;;;;;;5063441;28;45116;-80
2022/09/21 13:04:42;;;;;;;;;;;;;;;;;;5044543;28;45372;-79
2022/09/21 13:07:08;;;;;;;;;;;;;;;;;;5043238;28;44885;-80
2022/09/21 13:09:37;;;;;;;;;;;;;;;;;;5036539;28;47995;-80
2022/09/21 13:12:03;;;;;;;;;;;;;;;;;;5041036;28;47409;-79
2022/09/21 13:14:29;;;;;;;;;;;;;;;;;;5060145;28;44110;-79
2022/09/21 13:16:56;;;;;;;;;;;;;;;;;;5047307;28;45406;-80
2022/09/21 13:19:22;;;;;;;;;;;;;;;;;;5067238;28;47444;-79
2022/09/21 13:21:49;;;;;;;;;;;;;;;;;;5063898;28;42963;-79
2022/09/21 13:24:15;;;;;;;;;;;;;;;;;;5060147;28;46632;-79
2022/09/21 13:26:41;;;;;;;;;;;;;;;;;;5045036;28;42071;-79
2022/09/21 13:29:08;;;;;;;;;;;;;;;;;;5043435;28;46642;-79
2022/09/21 13:31:35;;;;;;;;;;;;;;;;;;5066976;28;48401;-79
2022/09/21 13:34:06;;;;;;;;;;;;;;;;;;5054901;28;42984;-79
2022/09/21 13:36:32;;;;;;;;;;;;;;;;;;5064361;28;46803;-79
2022/09/21 13:38:58;;;;;;;;;;;;;;;;;;5049869;28;48317;-79
2022/09/21 13:41:24;;;;;;;;;;;;;;;;;;5066780;28;45032;-78
2022/09/21 13:44:00;;;;;;;;;;;;;;;;;;5056943;28;47505;-79
2022/09/21 13:46:30;;;;;;;;;;;;;;;;;;5046943;28;34493;-79
2022/09/21 13:48:56;;;;;;;;;;;;;;;;;;5050384;28;45331;-79
2022/09/21 13:51:23;;;;;;;;;;;;;;;;;;5058353;28;48503;-79
2022/09/21 13:53:49;;;;;;;;;;;;;;;;;;5047632;28;44090;-78
2022/09/21 13:56:15;;;;;;;;;;;;;;;;;;5050347;28;47820;-79
2022/09/21 13:58:42;;;;;;;;;;;;;;;;;;5058630;28;45766;-79
2022/09/21 14:01:09;;;;;;;;;;;;;;;;;;5062324;28;42534;-79
2022/09/21 14:03:54;;;;;;;;;;;;;;;;;;5045598;28;46304;-79
2022/09/21 14:06:20;;;;;;;;;;;;;;;;;;5046729;28;45941;-79
2022/09/21 14:08:46;;;;;;;;;;;;;;;;;;5048668;28;48157;-79
2022/09/21 14:11:14;;;;;;;;;;;;;;;;;;5060656;28;45554;-79
2022/09/21 14:13:42;;;;;;;;;;;;;;;;;;5045458;28;45145;-78
2022/09/21 14:16:09;;;;;;;;;;;;;;;;;;5063386;28;46730;-79
2022/09/21 14:18:35;;;;;;;;;;;;;;;;;;5043231;28;46847;-79
2022/09/21 14:21:01;;;;;;;;;;;;;;;;;;5064788;28;45319;-78
2022/09/21 14:23:28;;;;;;;;;;;;;;;;;;5065722;28;48176;-78
2022/09/21 14:25:55;;;;;;;;;;;;;;;;;;5063441;28;47317;-78
2022/09/21 14:28:21;;;;;;;;;;;;;;;;;;5063526;28;45103;-79
2022/09/21 14:30:47;;;;;;;;;;;;;;;;;;5042478;28;46655;-79
2022/09/21 14:33:13;;;;;;;;;;;;;;;;;;5050775;28;42130;-79
2022/09/21 14:35:40;;;;;;;;;;;;;;;;;;5063106;28;46601;-79
2022/09/21 14:38:06;;;;;;;;;;;;;;;;;;5048141;28;48280;-79
2022/09/21 14:40:35;;;;;;;;;;;;;;;;;;5046102;28;43887;-78
2022/09/21 14:43:02;;;;;;;;;;;;;;;;;;5062562;28;47422;-78
2022/09/21 14:45:29;;;;;;;;;;;;;;;;;;5063920;28;46939;-78
2022/09/21 14:47:55;;;;;;;;;;;;;;;;;;5047394;28;45608;-78
2022/09/21 14:50:21;;;;;;;;;;;;;;;;;;5047323;28;48095;-79
2022/09/21 14:52:48;;;;;;;;;;;;;;;;;;5064078;28;43078;-79
2022/09/21 14:55:15;;;;;;;;;;;;;;;;;;5065513;28;47076;-78
2022/09/21 14:57:42;;;;;;;;;;;;;;;;;;5068057;28;48369;-79
2022/09/21 15:00:13;;;;;;;;;;;;;;;;;;5045843;28;45424;-79
2022/09/21 15:02:39;;;;;;;;;;;;;;;;;;5063989;28;44829;-78
2022/09/21 15:05:05;;;;;;;;;;;;;;;;;;5065831;28;48290;-79
2022/09/21 15:13:02;;;;;;;;;;;;;;;;;;5048000;28;47318;-79
2022/09/21 15:15:28;;;;;;;;;;;;;;;;;;5065725;28;47848;-79
2022/09/21 15:17:54;;;;;;;;;;;;;;;;;;5063654;28;47340;-79
2022/09/21 15:20:24;;;;;;;;;;;;;;;;;;5067948;28;46304;-78
2022/09/21 15:22:50;;;;;;;;;;;;;;;;;;5048345;28;46783;-79
2022/09/21 15:25:17;;;;;;;;;;;;;;;;;;5062391;28;47016;-79
2022/09/21 15:27:45;;;;;;;;;;;;;;;;;;5067263;28;45122;-79
2022/09/21 15:30:11;;;;;;;;;;;;;;;;;;5064697;28;44334;-79
2022/09/21 15:32:39;;;;;;;;;;;;;;;;;;5065413;28;46201;-79
2022/09/21 15:35:05;;;;;;;;;;;;;;;;;;5066911;28;44070;-79
2022/09/21 15:37:31;;;;;;;;;;;;;;;;;;5049203;28;44853;-79
2022/09/21 15:39:58;;;;;;;;;;;;;;;;;;5032709;28;44848;-79
2022/09/21 15:42:24;;;;;;;;;;;;;;;;;;5050381;28;46404;-79
2022/09/21 15:44:51;;;;;;;;;;;;;;;;;;5064277;28;48206;-79
2022/09/21 15:47:20;;;;;;;;;;;;;;;;;;5066016;28;45162;-79
2022/09/21 15:49:50;;;;;;;;;;;;;;;;;;5050342;28;47847;-78
2022/09/21 15:52:16;;;;;;;;;;;;;;;;;;5067628;28;48086;-78
2022/09/21 15:54:43;;;;;;;;;;;;;;;;;;5047357;28;44988;-79
2022/09/21 15:57:09;;;;;;;;;;;;;;;;;;5047453;28;48365;-78
2022/09/21 15:59:35;;;;;;;;;;;;;;;;;;5064039;28;44176;-79
2022/09/21 16:02:01;;;;;;;;;;;;;;;;;;5047619;28;46842;-78
2022/09/21 16:04:28;;;;;;;;;;;;;;;;;;5063928;28;46857;-78
2022/09/21 16:06:56;;;;;;;;;;;;;;;;;;5048801;28;42681;-78
2022/09/21 16:09:22;;;;;;;;;;;;;;;;;;5065934;28;47478;-79
2022/09/21 16:11:48;;;;;;;;;;;;;;;;;;5047400;28;47321;-79
2022/09/21 16:16:59;;;;;;;;;;;;;;;;;;5063701;28;45633;-78
2022/09/21 16:19:25;;;;;;;;;;;;;;;;;;5046862;28;41057;-77
2022/09/21 16:21:52;;;;;;;;;;;;;;;;;;5049517;28;42691;-78
2022/09/21 16:24:21;;;;;;;;;;;;;;;;;;5047301;28;48290;-78
2022/09/21 16:26:47;;;;;;;;;;;;;;;;;;5059347;28;44005;-77
2022/09/21 16:29:13;;;;;;;;;;;;;;;;;;5060678;28;46733;-76
2022/09/21 16:31:39;;;;;;;;;;;;;;;;;;5064139;28;47313;-78
2022/09/21 16:34:06;;;;;;;;;;;;;;;;;;5041370;28;44506;-78
2022/09/21 16:36:32;;;;;;;;;;;;;;;;;;5062967;28;47817;-78
2022/09/21 16:38:59;;;;;;;;;;;;;;;;;;5054915;28;47316;-77
2022/09/21 16:41:25;;;;;;;;;;;;;;;;;;5047276;28;46765;-78
2022/09/21 16:43:52;;;;;;;;;;;;;;;;;;5067586;28;46375;-77
2022/09/21 16:46:19;;;;;;;;;;;;;;;;;;5048458;28;44040;-77
2022/09/21 16:48:46;;;;;;;;;;;;;;;;;;5047988;28;46469;-77
2022/09/21 16:51:13;;;;;;;;;;;;;;;;;;5060176;28;47181;-77
2022/09/21 16:53:39;;;;;;;;;;;;;;;;;;5061634;28;44075;-77
2022/09/21 16:56:05;;;;;;;;;;;;;;;;;;5037753;28;45842;-77